sensor_id;sensor_type;location;lat;lon;timestamp;pressure;altitude;pressure_sealevel;temperature;humidity
53679;BME280;40119;52.030;4.708;2022-07-23T00:01:35;102025.72;;;22.37;36.23
53679;BME280;40119;52.030;4.708;2022-07-23T00:03:40;102030.53;;;19.15;40.78
53679;BME280;40119;52.030;4.708;2022-07-23T00:05:47;102030.95;;;19.51;40.18
53679;BME280;40119;52.030;4.708;2022-07-23T00:07:52;102031.26;;;19.73;40.13
53679;BME280;40119;52.030;4.708;2022-07-23T00:09:56;102025.27;;;21.74;37.71
53679;BME280;40119;52.030;4.708;2022-07-23T00:12:14;102032.35;;;19.51;41.67
53679;BME280;40119;52.030;4.708;2022-07-23T00:14:19;102030.01;;;19.63;41.59
53679;BME280;40119;52.030;4.708;2022-07-23T00:16:24;102030.72;;;19.76;40.73
53679;BME280;40119;52.030;4.708;2022-07-23T00:18:28;102022.78;;;21.60;38.51
53679;BME280;40119;52.030;4.708;2022-07-23T00:20:33;102021.29;;;20.94;38.80
53679;BME280;40119;52.030;4.708;2022-07-23T00:22:46;102018.01;;;20.18;40.39
53679;BME280;40119;52.030;4.708;2022-07-23T00:24:52;102018.10;;;19.74;40.80
53679;BME280;40119;52.030;4.708;2022-07-23T00:27:01;102014.28;;;19.36;42.87
53679;BME280;40119;52.030;4.708;2022-07-23T00:29:06;102008.68;;;20.28;40.42
53679;BME280;40119;52.030;4.708;2022-07-23T00:31:10;102003.02;;;21.84;38.52
53679;BME280;40119;52.030;4.708;2022-07-23T00:33:15;102000.62;;;21.72;38.78
53679;BME280;40119;52.030;4.708;2022-07-23T00:35:21;102000.04;;;22.50;37.53
53679;BME280;40119;52.030;4.708;2022-07-23T00:37:26;101999.04;;;20.09;40.26
53679;BME280;40119;52.030;4.708;2022-07-23T00:39:31;101990.48;;;21.40;38.62
53679;BME280;40119;52.030;4.708;2022-07-23T00:41:35;101984.37;;;22.56;36.88
53679;BME280;40119;52.030;4.708;2022-07-23T00:43:41;101986.22;;;23.12;35.81
53679;BME280;40119;52.030;4.708;2022-07-23T00:45:46;101987.13;;;23.05;36.20
53679;BME280;40119;52.030;4.708;2022-07-23T00:47:51;101981.73;;;23.48;35.36
53679;BME280;40119;52.030;4.708;2022-07-23T00:49:56;101980.09;;;24.16;34.18
53679;BME280;40119;52.030;4.708;2022-07-23T00:52:01;101986.18;;;22.64;36.17
53679;BME280;40119;52.030;4.708;2022-07-23T00:54:06;101980.77;;;23.96;34.40
53679;BME280;40119;52.030;4.708;2022-07-23T00:56:12;101981.90;;;21.93;37.54
53679;BME280;40119;52.030;4.708;2022-07-23T00:58:17;101975.48;;;23.44;34.89
53679;BME280;40119;52.030;4.708;2022-07-23T01:00:22;101982.56;;;20.40;39.20
53679;BME280;40119;52.030;4.708;2022-07-23T01:02:27;101977.87;;;23.21;36.00
53679;BME280;40119;52.030;4.708;2022-07-23T01:04:32;101982.26;;;20.98;38.74
53679;BME280;40119;52.030;4.708;2022-07-23T01:06:38;101972.94;;;22.08;37.29
53679;BME280;40119;52.030;4.708;2022-07-23T01:08:48;101968.54;;;21.31;38.44
53679;BME280;40119;52.030;4.708;2022-07-23T01:10:53;101966.46;;;23.51;35.54
53679;BME280;40119;52.030;4.708;2022-07-23T01:12:58;101971.19;;;22.72;35.92
53679;BME280;40119;52.030;4.708;2022-07-23T01:15:04;101969.00;;;21.55;37.32
53679;BME280;40119;52.030;4.708;2022-07-23T01:17:09;101969.22;;;20.38;39.23
53679;BME280;40119;52.030;4.708;2022-07-23T01:19:19;101958.33;;;23.39;35.35
53679;BME280;40119;52.030;4.708;2022-07-23T01:21:24;101960.95;;;21.56;37.14
53679;BME280;40119;52.030;4.708;2022-07-23T01:23:29;101961.61;;;22.18;37.17
53679;BME280;40119;52.030;4.708;2022-07-23T01:25:40;101954.18;;;23.94;34.36
53679;BME280;40119;52.030;4.708;2022-07-23T01:27:57;101958.57;;;19.90;40.10
53679;BME280;40119;52.030;4.708;2022-07-23T01:30:03;101953.67;;;21.88;37.17
53679;BME280;40119;52.030;4.708;2022-07-23T01:32:08;101961.45;;;21.00;38.64
53679;BME280;40119;52.030;4.708;2022-07-23T01:34:13;101960.40;;;22.44;36.43
53679;BME280;40119;52.030;4.708;2022-07-23T01:36:18;101961.89;;;22.59;36.10
53679;BME280;40119;52.030;4.708;2022-07-23T01:38:23;101968.32;;;20.99;39.00
53679;BME280;40119;52.030;4.708;2022-07-23T01:40:33;101966.65;;;23.07;35.88
53679;BME280;40119;52.030;4.708;2022-07-23T01:42:37;101975.21;;;20.93;39.34
53679;BME280;40119;52.030;4.708;2022-07-23T01:44:44;101973.94;;;20.42;38.98
53679;BME280;40119;52.030;4.708;2022-07-23T01:46:49;101969.53;;;21.28;38.22
53679;BME280;40119;52.030;4.708;2022-07-23T01:48:54;101968.98;;;21.45;37.65
53679;BME280;40119;52.030;4.708;2022-07-23T01:51:00;101967.73;;;22.50;36.36
53679;BME280;40119;52.030;4.708;2022-07-23T01:53:05;101967.87;;;23.20;35.15
53679;BME280;40119;52.030;4.708;2022-07-23T01:55:10;101976.54;;;22.42;36.23
53679;BME280;40119;52.030;4.708;2022-07-23T01:57:14;101975.99;;;22.41;36.16
53679;BME280;40119;52.030;4.708;2022-07-23T01:59:18;101977.46;;;21.91;36.92
53679;BME280;40119;52.030;4.708;2022-07-23T02:01:23;101975.62;;;21.15;38.03
53679;BME280;40119;52.030;4.708;2022-07-23T02:03:27;101978.02;;;19.87;39.63
53679;BME280;40119;52.030;4.708;2022-07-23T02:05:32;101978.05;;;21.86;37.61
53679;BME280;40119;52.030;4.708;2022-07-23T02:07:36;101973.44;;;23.20;35.20
53679;BME280;40119;52.030;4.708;2022-07-23T02:09:41;101972.41;;;23.01;35.40
53679;BME280;40119;52.030;4.708;2022-07-23T02:11:46;101974.70;;;21.94;36.54
53679;BME280;40119;52.030;4.708;2022-07-23T02:13:50;101972.48;;;21.96;36.69
53679;BME280;40119;52.030;4.708;2022-07-23T02:15:55;101972.08;;;20.63;38.53
53679;BME280;40119;52.030;4.708;2022-07-23T02:17:59;101962.28;;;23.42;34.41
53679;BME280;40119;52.030;4.708;2022-07-23T02:20:05;101961.20;;;24.18;34.07
53679;BME280;40119;52.030;4.708;2022-07-23T02:22:09;101964.89;;;23.46;34.39
53679;BME280;40119;52.030;4.708;2022-07-23T02:24:14;101971.65;;;21.57;37.36
53679;BME280;40119;52.030;4.708;2022-07-23T02:26:18;101969.10;;;22.91;35.55
53679;BME280;40119;52.030;4.708;2022-07-23T02:28:23;101961.41;;;23.52;34.56
53679;BME280;40119;52.030;4.708;2022-07-23T02:30:27;101962.96;;;22.92;35.46
53679;BME280;40119;52.030;4.708;2022-07-23T02:32:31;101967.14;;;21.59;37.34
53679;BME280;40119;52.030;4.708;2022-07-23T02:34:36;101971.05;;;22.00;37.15
53679;BME280;40119;52.030;4.708;2022-07-23T02:36:40;101970.43;;;22.65;35.88
53679;BME280;40119;52.030;4.708;2022-07-23T02:38:50;101973.65;;;21.07;37.56
53679;BME280;40119;52.030;4.708;2022-07-23T02:40:54;101972.86;;;22.03;36.69
53679;BME280;40119;52.030;4.708;2022-07-23T02:42:58;101968.02;;;23.05;35.30
53679;BME280;40119;52.030;4.708;2022-07-23T02:45:08;101972.81;;;21.75;37.01
53679;BME280;40119;52.030;4.708;2022-07-23T02:47:13;101970.28;;;22.91;35.29
53679;BME280;40119;52.030;4.708;2022-07-23T02:49:17;101979.87;;;21.87;36.79
53679;BME280;40119;52.030;4.708;2022-07-23T02:51:22;101983.96;;;21.28;37.46
53679;BME280;40119;52.030;4.708;2022-07-23T02:53:26;101987.54;;;21.47;36.90
53679;BME280;40119;52.030;4.708;2022-07-23T02:55:31;101985.75;;;22.37;36.32
53679;BME280;40119;52.030;4.708;2022-07-23T02:57:35;101989.30;;;22.39;35.89
53679;BME280;40119;52.030;4.708;2022-07-23T02:59:40;101990.93;;;22.19;36.21
53679;BME280;40119;52.030;4.708;2022-07-23T03:01:44;101998.61;;;16.76;44.27
53679;BME280;40119;52.030;4.708;2022-07-23T03:03:49;101992.21;;;21.85;37.11
53679;BME280;40119;52.030;4.708;2022-07-23T03:05:53;101989.74;;;22.01;36.50
53679;BME280;40119;52.030;4.708;2022-07-23T03:07:57;101989.32;;;22.34;36.46
53679;BME280;40119;52.030;4.708;2022-07-23T03:10:03;101986.85;;;21.85;36.83
53679;BME280;40119;52.030;4.708;2022-07-23T03:12:08;101983.94;;;22.23;36.55
53679;BME280;40119;52.030;4.708;2022-07-23T03:14:12;101979.02;;;23.99;34.16
53679;BME280;40119;52.030;4.708;2022-07-23T03:16:16;101979.71;;;23.10;35.42
53679;BME280;40119;52.030;4.708;2022-07-23T03:18:21;101973.63;;;23.58;34.69
53679;BME280;40119;52.030;4.708;2022-07-23T03:20:25;101975.38;;;22.55;35.55
53679;BME280;40119;52.030;4.708;2022-07-23T03:22:30;101972.99;;;23.27;34.91
53679;BME280;40119;52.030;4.708;2022-07-23T03:24:34;101974.67;;;23.03;35.00
53679;BME280;40119;52.030;4.708;2022-07-23T03:26:39;101974.34;;;23.62;34.09
53679;BME280;40119;52.030;4.708;2022-07-23T03:28:44;101976.20;;;22.86;35.13
53679;BME280;40119;52.030;4.708;2022-07-23T03:30:48;101973.43;;;24.07;33.77
53679;BME280;40119;52.030;4.708;2022-07-23T03:32:53;101979.72;;;22.65;35.44
53679;BME280;40119;52.030;4.708;2022-07-23T03:34:57;101978.59;;;22.79;35.41
53679;BME280;40119;52.030;4.708;2022-07-23T03:37:02;101973.06;;;24.07;33.70
53679;BME280;40119;52.030;4.708;2022-07-23T03:39:07;101974.21;;;22.11;36.19
53679;BME280;40119;52.030;4.708;2022-07-23T03:41:11;101972.55;;;22.56;35.83
53679;BME280;40119;52.030;4.708;2022-07-23T03:43:15;101970.86;;;21.83;36.63
53679;BME280;40119;52.030;4.708;2022-07-23T03:45:20;101971.00;;;22.20;36.35
53679;BME280;40119;52.030;4.708;2022-07-23T03:47:24;101972.95;;;22.25;36.28
53679;BME280;40119;52.030;4.708;2022-07-23T03:49:29;101975.71;;;22.99;35.07
53679;BME280;40119;52.030;4.708;2022-07-23T03:51:33;101979.45;;;21.87;36.38
53679;BME280;40119;52.030;4.708;2022-07-23T03:53:37;101977.65;;;22.36;35.90
53679;BME280;40119;52.030;4.708;2022-07-23T03:55:43;101980.13;;;21.71;36.65
53679;BME280;40119;52.030;4.708;2022-07-23T03:57:47;101976.94;;;22.28;36.31
53679;BME280;40119;52.030;4.708;2022-07-23T03:59:52;101979.36;;;22.27;36.32
53679;BME280;40119;52.030;4.708;2022-07-23T04:01:56;101980.19;;;22.88;35.67
53679;BME280;40119;52.030;4.708;2022-07-23T04:04:00;101980.86;;;22.20;35.96
53679;BME280;40119;52.030;4.708;2022-07-23T04:06:06;101982.58;;;23.46;34.71
53679;BME280;40119;52.030;4.708;2022-07-23T04:08:15;101995.76;;;20.37;38.54
53679;BME280;40119;52.030;4.708;2022-07-23T04:10:25;101999.44;;;21.67;36.84
53679;BME280;40119;52.030;4.708;2022-07-23T04:12:29;101999.43;;;22.67;35.46
53679;BME280;40119;52.030;4.708;2022-07-23T04:14:35;102000.16;;;22.45;36.12
53679;BME280;40119;52.030;4.708;2022-07-23T04:16:42;102001.02;;;21.99;36.40
53679;BME280;40119;52.030;4.708;2022-07-23T04:18:46;102001.55;;;22.33;35.91
53679;BME280;40119;52.030;4.708;2022-07-23T04:20:52;101999.81;;;22.61;35.93
53679;BME280;40119;52.030;4.708;2022-07-23T04:22:56;101998.23;;;22.36;36.12
53679;BME280;40119;52.030;4.708;2022-07-23T04:25:00;102000.80;;;21.85;36.69
53679;BME280;40119;52.030;4.708;2022-07-23T04:27:05;101995.13;;;22.54;35.80
53679;BME280;40119;52.030;4.708;2022-07-23T04:29:10;101993.27;;;22.72;35.78
53679;BME280;40119;52.030;4.708;2022-07-23T04:31:14;101994.66;;;22.75;35.91
53679;BME280;40119;52.030;4.708;2022-07-23T04:33:19;101996.97;;;22.97;35.64
53679;BME280;40119;52.030;4.708;2022-07-23T04:35:23;101998.12;;;22.99;34.93
53679;BME280;40119;52.030;4.708;2022-07-23T04:37:28;101999.52;;;22.80;35.65
53679;BME280;40119;52.030;4.708;2022-07-23T04:39:32;101998.67;;;23.26;35.06
53679;BME280;40119;52.030;4.708;2022-07-23T04:41:36;101998.90;;;23.36;35.03
53679;BME280;40119;52.030;4.708;2022-07-23T04:43:41;102003.44;;;23.20;35.19
53679;BME280;40119;52.030;4.708;2022-07-23T04:45:46;102002.74;;;23.55;34.60
53679;BME280;40119;52.030;4.708;2022-07-23T04:47:52;102003.81;;;23.66;34.84
53679;BME280;40119;52.030;4.708;2022-07-23T04:49:56;102012.13;;;19.08;41.04
53679;BME280;40119;52.030;4.708;2022-07-23T04:52:01;102010.00;;;23.38;35.31
53679;BME280;40119;52.030;4.708;2022-07-23T04:54:05;102010.36;;;24.12;34.42
53679;BME280;40119;52.030;4.708;2022-07-23T04:56:10;102014.49;;;24.60;34.02
53679;BME280;40119;52.030;4.708;2022-07-23T04:58:14;102016.38;;;22.63;36.12
53679;BME280;40119;52.030;4.708;2022-07-23T05:00:18;102010.98;;;23.26;35.47
53679;BME280;40119;52.030;4.708;2022-07-23T05:02:23;102010.03;;;22.75;36.86
53679;BME280;40119;52.030;4.708;2022-07-23T05:04:27;102008.95;;;23.12;36.09
53679;BME280;40119;52.030;4.708;2022-07-23T05:06:31;102010.83;;;22.58;36.57
53679;BME280;40119;52.030;4.708;2022-07-23T05:08:37;102012.58;;;22.30;36.45
53679;BME280;40119;52.030;4.708;2022-07-23T05:10:42;102013.22;;;24.85;33.52
53679;BME280;40119;52.030;4.708;2022-07-23T05:12:47;102017.00;;;22.64;35.94
53679;BME280;40119;52.030;4.708;2022-07-23T05:14:51;102012.95;;;23.27;34.70
53679;BME280;40119;52.030;4.708;2022-07-23T05:16:55;102011.39;;;24.08;33.66
53679;BME280;40119;52.030;4.708;2022-07-23T05:19:01;102016.58;;;21.76;36.44
53679;BME280;40119;52.030;4.708;2022-07-23T05:21:05;102011.93;;;22.84;35.06
53679;BME280;40119;52.030;4.708;2022-07-23T05:23:10;102013.00;;;23.45;34.45
53679;BME280;40119;52.030;4.708;2022-07-23T05:25:14;102012.73;;;24.58;31.84
53679;BME280;40119;52.030;4.708;2022-07-23T05:27:18;102014.88;;;23.86;33.70
53679;BME280;40119;52.030;4.708;2022-07-23T05:29:23;102021.69;;;22.02;36.41
53679;BME280;40119;52.030;4.708;2022-07-23T05:31:32;102020.30;;;24.39;33.73
53679;BME280;40119;52.030;4.708;2022-07-23T05:33:37;102021.56;;;23.09;34.14
53679;BME280;40119;52.030;4.708;2022-07-23T05:35:42;102016.90;;;24.64;32.56
53679;BME280;40119;52.030;4.708;2022-07-23T05:37:46;102014.83;;;23.58;33.73
53679;BME280;40119;52.030;4.708;2022-07-23T05:39:51;102014.36;;;24.81;32.14
53679;BME280;40119;52.030;4.708;2022-07-23T05:41:55;102014.69;;;24.40;32.35
53679;BME280;40119;52.030;4.708;2022-07-23T05:43:59;102015.34;;;24.44;31.93
53679;BME280;40119;52.030;4.708;2022-07-23T05:46:04;102014.84;;;25.23;31.13
53679;BME280;40119;52.030;4.708;2022-07-23T05:48:08;102015.70;;;25.77;29.39
53679;BME280;40119;52.030;4.708;2022-07-23T05:50:14;102017.16;;;26.42;29.65
53679;BME280;40119;52.030;4.708;2022-07-23T05:52:18;102018.09;;;24.96;31.38
53679;BME280;40119;52.030;4.708;2022-07-23T05:54:23;102026.76;;;18.33;39.83
53679;BME280;40119;52.030;4.708;2022-07-23T05:56:27;102022.35;;;22.66;33.98
53679;BME280;40119;52.030;4.708;2022-07-23T05:58:31;102022.19;;;22.06;34.64
53679;BME280;40119;52.030;4.708;2022-07-23T06:00:36;102019.15;;;24.31;32.10
53679;BME280;40119;52.030;4.708;2022-07-23T06:02:41;102028.95;;;16.76;43.33
53679;BME280;40119;52.030;4.708;2022-07-23T06:04:50;102024.16;;;21.97;35.22
53679;BME280;40119;52.030;4.708;2022-07-23T06:07:00;102024.69;;;23.29;32.53
53679;BME280;40119;52.030;4.708;2022-07-23T06:09:09;102029.10;;;25.45;31.48
53679;BME280;40119;52.030;4.708;2022-07-23T06:11:13;102033.75;;;25.81;30.35
53679;BME280;40119;52.030;4.708;2022-07-23T06:13:18;102035.77;;;22.29;33.06
53679;BME280;40119;52.030;4.708;2022-07-23T06:15:23;102030.32;;;27.51;27.71
53679;BME280;40119;52.030;4.708;2022-07-23T06:17:28;102028.30;;;28.38;26.54
53679;BME280;40119;52.030;4.708;2022-07-23T06:19:32;102033.18;;;25.33;28.72
53679;BME280;40119;52.030;4.708;2022-07-23T06:21:36;102031.44;;;27.60;26.45
53679;BME280;40119;52.030;4.708;2022-07-23T06:23:41;102035.43;;;27.67;27.47
53679;BME280;40119;52.030;4.708;2022-07-23T06:25:46;102032.96;;;27.39;26.88
53679;BME280;40119;52.030;4.708;2022-07-23T06:27:50;102037.70;;;25.19;29.27
53679;BME280;40119;52.030;4.708;2022-07-23T06:29:55;102034.56;;;29.85;25.12
53679;BME280;40119;52.030;4.708;2022-07-23T06:31:59;102033.00;;;27.64;26.06
53679;BME280;40119;52.030;4.708;2022-07-23T06:34:04;102029.13;;;27.91;25.64
53679;BME280;40119;52.030;4.708;2022-07-23T06:36:08;102022.45;;;28.24;25.37
53679;BME280;40119;52.030;4.708;2022-07-23T06:38:13;102026.12;;;25.57;28.60
53679;BME280;40119;52.030;4.708;2022-07-23T06:40:18;102030.48;;;25.00;28.24
53679;BME280;40119;52.030;4.708;2022-07-23T06:42:22;102019.77;;;29.18;24.21
53679;BME280;40119;52.030;4.708;2022-07-23T06:44:27;102018.79;;;28.52;25.47
53679;BME280;40119;52.030;4.708;2022-07-23T06:46:31;102023.10;;;27.16;26.64
53679;BME280;40119;52.030;4.708;2022-07-23T06:48:36;102019.90;;;29.65;24.68
53679;BME280;40119;52.030;4.708;2022-07-23T06:50:40;102032.24;;;25.42;28.85
53679;BME280;40119;52.030;4.708;2022-07-23T06:52:45;102028.67;;;25.49;28.46
53679;BME280;40119;52.030;4.708;2022-07-23T06:54:49;102029.35;;;27.08;27.69
53679;BME280;40119;52.030;4.708;2022-07-23T06:56:54;102031.44;;;27.87;26.51
53679;BME280;40119;52.030;4.708;2022-07-23T06:58:58;102030.64;;;27.86;27.00
53679;BME280;40119;52.030;4.708;2022-07-23T07:01:02;102031.13;;;28.02;26.65
53679;BME280;40119;52.030;4.708;2022-07-23T07:03:07;102039.02;;;27.04;28.63
53679;BME280;40119;52.030;4.708;2022-07-23T07:05:11;102035.36;;;24.21;30.78
53679;BME280;40119;52.030;4.708;2022-07-23T07:07:15;102032.74;;;26.44;29.48
53679;BME280;40119;52.030;4.708;2022-07-23T07:09:19;102037.37;;;25.29;29.61
53679;BME280;40119;52.030;4.708;2022-07-23T07:11:25;102045.86;;;19.86;37.80
53679;BME280;40119;52.030;4.708;2022-07-23T07:13:35;102049.58;;;21.12;35.97
53679;BME280;40119;52.030;4.708;2022-07-23T07:15:40;102057.07;;;20.91;35.84
53679;BME280;40119;52.030;4.708;2022-07-23T07:17:45;102058.67;;;20.94;36.25
53679;BME280;40119;52.030;4.708;2022-07-23T07:19:50;102061.04;;;21.74;35.76
53679;BME280;40119;52.030;4.708;2022-07-23T07:21:56;102061.27;;;20.98;36.23
53679;BME280;40119;52.030;4.708;2022-07-23T07:24:01;102054.31;;;24.14;32.60
53679;BME280;40119;52.030;4.708;2022-07-23T07:26:06;102049.32;;;24.59;32.45
53679;BME280;40119;52.030;4.708;2022-07-23T07:28:15;102054.31;;;20.21;38.63
53679;BME280;40119;52.030;4.708;2022-07-23T07:30:20;102053.05;;;23.04;34.08
53679;BME280;40119;52.030;4.708;2022-07-23T07:32:25;102051.01;;;25.55;31.45
53679;BME280;40119;52.030;4.708;2022-07-23T07:34:30;102058.00;;;23.46;34.32
53679;BME280;40119;52.030;4.708;2022-07-23T07:36:34;102059.37;;;24.46;32.29
53679;BME280;40119;52.030;4.708;2022-07-23T07:38:39;102062.73;;;23.45;33.97
53679;BME280;40119;52.030;4.708;2022-07-23T07:40:44;102062.93;;;22.18;36.05
53679;BME280;40119;52.030;4.708;2022-07-23T07:42:51;102066.73;;;22.17;35.30
53679;BME280;40119;52.030;4.708;2022-07-23T07:44:56;102067.35;;;19.14;41.54
53679;BME280;40119;52.030;4.708;2022-07-23T07:47:01;102067.44;;;22.78;34.59
53679;BME280;40119;52.030;4.708;2022-07-23T07:49:05;102073.41;;;22.98;35.21
53679;BME280;40119;52.030;4.708;2022-07-23T07:51:10;102067.39;;;21.94;36.55
53679;BME280;40119;52.030;4.708;2022-07-23T07:53:14;102069.50;;;20.64;40.50
53679;BME280;40119;52.030;4.708;2022-07-23T07:55:18;102067.27;;;22.11;36.25
53679;BME280;40119;52.030;4.708;2022-07-23T07:57:23;102071.64;;;22.52;35.89
53679;BME280;40119;52.030;4.708;2022-07-23T07:59:27;102072.49;;;23.23;36.12
53679;BME280;40119;52.030;4.708;2022-07-23T08:01:32;102080.60;;;19.02;40.31
53679;BME280;40119;52.030;4.708;2022-07-23T08:03:36;102074.21;;;23.05;34.49
53679;BME280;40119;52.030;4.708;2022-07-23T08:05:41;102081.71;;;22.52;35.76
53679;BME280;40119;52.030;4.708;2022-07-23T08:07:45;102085.35;;;20.07;39.00
53679;BME280;40119;52.030;4.708;2022-07-23T08:09:49;102084.15;;;23.80;34.25
53679;BME280;40119;52.030;4.708;2022-07-23T08:11:54;102087.04;;;19.35;42.46
53679;BME280;40119;52.030;4.708;2022-07-23T08:13:58;102089.97;;;20.69;37.79
53679;BME280;40119;52.030;4.708;2022-07-23T08:16:03;102090.31;;;22.17;36.50
53679;BME280;40119;52.030;4.708;2022-07-23T08:18:07;102090.76;;;18.01;44.74
53679;BME280;40119;52.030;4.708;2022-07-23T08:20:13;102086.38;;;21.08;37.57
53679;BME280;40119;52.030;4.708;2022-07-23T08:22:18;102080.12;;;23.15;36.26
53679;BME280;40119;52.030;4.708;2022-07-23T08:24:22;102081.34;;;23.87;33.11
53679;BME280;40119;52.030;4.708;2022-07-23T08:26:27;102081.58;;;24.94;31.81
53679;BME280;40119;52.030;4.708;2022-07-23T08:28:36;102087.08;;;23.78;34.29
53679;BME280;40119;52.030;4.708;2022-07-23T08:30:43;102087.29;;;24.09;33.15
53679;BME280;40119;52.030;4.708;2022-07-23T08:32:50;102090.59;;;22.38;35.93
53679;BME280;40119;52.030;4.708;2022-07-23T08:34:54;102093.18;;;21.94;36.39
53679;BME280;40119;52.030;4.708;2022-07-23T08:36:58;102090.41;;;23.49;34.30
53679;BME280;40119;52.030;4.708;2022-07-23T08:39:03;102092.32;;;21.30;37.75
53679;BME280;40119;52.030;4.708;2022-07-23T08:41:07;102094.58;;;19.37;40.29
53679;BME280;40119;52.030;4.708;2022-07-23T08:43:14;102089.47;;;23.88;33.30
53679;BME280;40119;52.030;4.708;2022-07-23T08:45:20;102095.65;;;22.58;34.44
53679;BME280;40119;52.030;4.708;2022-07-23T08:47:25;102094.76;;;21.23;36.26
53679;BME280;40119;52.030;4.708;2022-07-23T08:49:30;102094.87;;;24.01;33.91
53679;BME280;40119;52.030;4.708;2022-07-23T08:51:35;102093.63;;;23.78;34.74
53679;BME280;40119;52.030;4.708;2022-07-23T08:53:40;102088.45;;;24.29;32.97
53679;BME280;40119;52.030;4.708;2022-07-23T08:55:45;102087.33;;;24.22;32.76
53679;BME280;40119;52.030;4.708;2022-07-23T08:57:51;102088.98;;;24.81;32.49
53679;BME280;40119;52.030;4.708;2022-07-23T08:59:56;102092.46;;;24.13;32.75
53679;BME280;40119;52.030;4.708;2022-07-23T09:02:00;102097.35;;;24.45;32.62
53679;BME280;40119;52.030;4.708;2022-07-23T09:04:05;102093.68;;;24.26;32.39
53679;BME280;40119;52.030;4.708;2022-07-23T09:06:10;102089.02;;;25.35;32.19
53679;BME280;40119;52.030;4.708;2022-07-23T09:08:15;102091.42;;;23.46;34.79
53679;BME280;40119;52.030;4.708;2022-07-23T09:10:20;102095.06;;;23.35;34.19
53679;BME280;40119;52.030;4.708;2022-07-23T09:12:25;102101.19;;;21.93;35.91
53679;BME280;40119;52.030;4.708;2022-07-23T09:14:39;102102.78;;;21.71;37.42
53679;BME280;40119;52.030;4.708;2022-07-23T09:16:44;102100.75;;;21.45;39.10
53679;BME280;40119;52.030;4.708;2022-07-23T09:18:50;102102.59;;;20.79;38.58
53679;BME280;40119;52.030;4.708;2022-07-23T09:21:10;102103.26;;;22.44;37.00
53679;BME280;40119;52.030;4.708;2022-07-23T09:23:14;102104.18;;;21.83;38.99
53679;BME280;40119;52.030;4.708;2022-07-23T09:25:19;102099.96;;;23.32;34.07
53679;BME280;40119;52.030;4.708;2022-07-23T09:27:45;102099.65;;;23.32;34.13
53679;BME280;40119;52.030;4.708;2022-07-23T09:29:56;102097.87;;;23.66;33.90
53679;BME280;40119;52.030;4.708;2022-07-23T09:32:05;102100.98;;;23.10;35.17
53679;BME280;40119;52.030;4.708;2022-07-23T09:34:12;102100.75;;;22.72;36.98
53679;BME280;40119;52.030;4.708;2022-07-23T09:36:27;102100.70;;;22.81;35.57
53679;BME280;40119;52.030;4.708;2022-07-23T09:38:32;102097.10;;;23.49;34.61
53679;BME280;40119;52.030;4.708;2022-07-23T09:40:37;102102.57;;;23.25;34.33
53679;BME280;40119;52.030;4.708;2022-07-23T09:42:55;102104.32;;;23.39;34.24
53679;BME280;40119;52.030;4.708;2022-07-23T09:45:00;102106.79;;;20.18;39.73
53679;BME280;40119;52.030;4.708;2022-07-23T09:47:07;102108.01;;;20.47;39.83
53679;BME280;40119;52.030;4.708;2022-07-23T09:49:15;102107.54;;;21.53;37.40
53679;BME280;40119;52.030;4.708;2022-07-23T09:51:20;102101.77;;;24.29;33.81
53679;BME280;40119;52.030;4.708;2022-07-23T09:53:25;102099.52;;;24.35;32.77
53679;BME280;40119;52.030;4.708;2022-07-23T09:55:32;102099.93;;;23.63;33.75
53679;BME280;40119;52.030;4.708;2022-07-23T09:57:37;102101.98;;;24.24;35.34
53679;BME280;40119;52.030;4.708;2022-07-23T09:59:45;102108.92;;;21.36;37.61
53679;BME280;40119;52.030;4.708;2022-07-23T10:01:50;102110.67;;;20.20;39.21
53679;BME280;40119;52.030;4.708;2022-07-23T10:03:55;102109.93;;;22.06;36.07
53679;BME280;40119;52.030;4.708;2022-07-23T10:06:00;102109.54;;;23.37;37.52
53679;BME280;40119;52.030;4.708;2022-07-23T10:08:07;102108.74;;;21.03;39.27
53679;BME280;40119;52.030;4.708;2022-07-23T10:10:15;102107.94;;;19.89;40.75
53679;BME280;40119;52.030;4.708;2022-07-23T10:12:20;102104.08;;;21.29;38.09
53679;BME280;40119;52.030;4.708;2022-07-23T10:14:25;102103.54;;;20.15;37.84
53679;BME280;40119;52.030;4.708;2022-07-23T10:16:30;102097.64;;;24.82;31.09
53679;BME280;40119;52.030;4.708;2022-07-23T10:18:35;102102.06;;;26.47;29.18
53679;BME280;40119;52.030;4.708;2022-07-23T10:20:40;102104.66;;;20.61;36.45
53679;BME280;40119;52.030;4.708;2022-07-23T10:22:53;102101.26;;;22.65;36.87
53679;BME280;40119;52.030;4.708;2022-07-23T10:25:10;102099.92;;;23.91;32.64
53679;BME280;40119;52.030;4.708;2022-07-23T10:27:30;102098.25;;;24.94;31.67
53679;BME280;40119;52.030;4.708;2022-07-23T10:29:46;102099.45;;;23.45;34.07
53679;BME280;40119;52.030;4.708;2022-07-23T10:31:58;102096.27;;;26.92;28.69
53679;BME280;40119;52.030;4.708;2022-07-23T10:34:12;102094.35;;;26.74;28.44
53679;BME280;40119;52.030;4.708;2022-07-23T10:36:23;102093.93;;;27.09;29.86
53679;BME280;40119;52.030;4.708;2022-07-23T10:38:35;102097.00;;;22.84;33.66
53679;BME280;40119;52.030;4.708;2022-07-23T10:40:55;102093.59;;;23.24;34.24
53679;BME280;40119;52.030;4.708;2022-07-23T10:43:00;102089.66;;;24.22;31.35
53679;BME280;40119;52.030;4.708;2022-07-23T10:45:24;102088.85;;;26.35;29.90
53679;BME280;40119;52.030;4.708;2022-07-23T10:47:29;102089.84;;;24.44;32.24
53679;BME280;40119;52.030;4.708;2022-07-23T10:49:34;102089.75;;;25.54;29.74
53679;BME280;40119;52.030;4.708;2022-07-23T10:51:39;102086.90;;;28.23;27.13
53679;BME280;40119;52.030;4.708;2022-07-23T10:53:59;102090.71;;;25.01;30.23
53679;BME280;40119;52.030;4.708;2022-07-23T10:56:03;102087.31;;;26.81;27.58
53679;BME280;40119;52.030;4.708;2022-07-23T10:58:07;102087.86;;;24.30;33.36